Peter Mac — WDC9573 — position and weather

sailwx.info

Track history (hours):
 
Tides and Currents Weather Stations Pressure Air Temp Water Temp Dewpoint Dewpoint Depression Visibility Wind Speed Wind Dir Waves Ship Positions

Peter Mac

Owner: So Cal Ship Services inc., TERMINAL ISLAND, CA. More information available from US FCC via Universal Licensing System and Coast Guard Vessel Documentation Center.

Last reported at 2018-Jul-16 04:31 UTC. Time now 2018-Jul-16 04:30 UTC.
Position N 33°44' W 118°16'.

Length 27 m; draft 2.4 m.

Type: Other ship. MMSI: 367104080.

Date/timePositionNaut miles runAvg speedWind from/ knotsBaromVisibWave heightAir tempDewpointWater temp
2018-Jul-16 04:31N 33°44' W 118°16'0 0.0
2018-Jul-16 04:00N 33°44' W 118°16'0 0.0
2018-Jul-16 03:30N 33°44' W 118°16'0 0.0
2018-Jul-16 03:01N 33°44' W 118°16'0 0.2
2018-Jul-16 02:30N 33°44' W 118°16'510.2
2018-Jul-16 02:00N 33°41' W 118°11'612.1
2018-Jul-16 01:30N 33°40' W 118°04'4 7.8
2018-Jul-16 01:00N 33°43' W 118°06'1 2.0
2018-Jul-16 00:29N 33°44' W 118°06'4 9.1
2018-Jul-16 00:00N 33°41' W 118°04'1 2.0
2018-Jul-15 23:30N 33°41' W 118°04'1 1.6
2018-Jul-15 23:00N 33°42' W 118°05'3 5.8
2018-Jul-15 22:30N 33°40' W 118°03'5 9.1
2018-Jul-15 22:01N 33°40' W 118°08'714.5
2018-Jul-15 21:31N 33°43' W 118°16'1 1.9
2018-Jul-15 21:00N 33°44' W 118°16'0 0.0
2018-Jul-15 20:30N 33°44' W 118°16'0 0.0
2018-Jul-15 20:00N 33°44' W 118°16'0 0.0
2018-Jul-15 19:30N 33°44' W 118°16'0 0.0
2018-Jul-15 19:01N 33°44' W 118°16'1 2.0
2018-Jul-15 18:30N 33°43' W 118°16'713.7
2018-Jul-15 18:00N 33°42' W 118°08'5 9.7
2018-Jul-15 17:31N 33°40' W 118°03'2 4.2
2018-Jul-15 17:00N 33°40' W 118°05'714.2
2018-Jul-15 16:30N 33°41' W 118°14'4 7.1
2018-Jul-15 16:01N 33°44' W 118°16'0 0.0
2018-Jul-15 15:31N 33°44' W 118°16'0 0.0
2018-Jul-15 15:00N 33°44' W 118°16'2 3.4
2018-Jul-15 14:30N 33°43' W 118°15'714.1
2018-Jul-15 14:00N 33°44' W 118°07'510.9
2018-Jul-15 13:30N 33°40' W 118°03'510.9
2018-Jul-15 13:00N 33°44' W 118°06'4 7.2
2018-Jul-15 12:30N 33°41' W 118°04'2 3.6
2018-Jul-15 12:00N 33°40' W 118°03'0 0.0
2018-Jul-15 11:30N 33°40' W 118°03'1 1.3
2018-Jul-15 11:00N 33°40' W 118°03'712.9
2018-Jul-15 10:30N 33°41' W 118°11'510.9
2018-Jul-15 10:00N 33°44' W 118°16'1 1.4
2018-Jul-15 09:30N 33°43' W 118°16'611.2
2018-Jul-15 09:00N 33°40' W 118°10'611.9
2018-Jul-15 08:30N 33°40' W 118°03'1 1.0
2018-Jul-15 08:00N 33°40' W 118°03'0 0.0
2018-Jul-15 07:30N 33°40' W 118°03'0 0.0
2018-Jul-15 07:01N 33°40' W 118°03'0 0.0
2018-Jul-15 06:30N 33°40' W 118°03'0 0.0
2018-Jul-15 06:00N 33°40' W 118°03'0 0.0
2018-Jul-15 05:31N 33°40' W 118°03'0 0.0
2018-Jul-15 05:01N 33°40' W 118°03'0 0.2
2018-Jul-15 04:30N 33°40' W 118°03'510.9
2018-Jul-15 04:00N 33°44' W 118°06'612.0
2018-Jul-15 03:30N 33°43' W 118°14'2 4.8
2018-Jul-15 03:00N 33°44' W 118°16'2 4.1
2018-Jul-15 02:30N 33°43' W 118°14'612.9
2018-Jul-15 02:00N 33°44' W 118°06'510.3
2018-Jul-15 01:30N 33°40' W 118°03'4 7.7
2018-Jul-15 01:00N 33°43' W 118°06'1 1.4
2018-Jul-15 00:31N 33°44' W 118°06'5 9.5
2018-Jul-15 00:00N 33°40' W 118°03'0 0.0
2018-Jul-14 23:30N 33°40' W 118°03'0 0.0
2018-Jul-14 23:00N 33°40' W 118°03'0 0.0
2018-Jul-14 22:30N 33°40' W 118°03'0 0.0
2018-Jul-14 22:00N 33°40' W 118°03'0 0.0
2018-Jul-14 21:30N 33°40' W 118°03'0 0.0
2018-Jul-14 21:00N 33°40' W 118°03'0 0.0
2018-Jul-14 20:30N 33°40' W 118°03'1 1.3
2018-Jul-14 20:00N 33°40' W 118°04'814.8
2018-Jul-14 19:30N 33°41' W 118°13'5 9.5
2018-Jul-14 19:00N 33°44' W 118°16'0 0.0
2018-Jul-14 18:30N 33°44' W 118°16'0 0.0
2018-Jul-14 18:00N 33°44' W 118°16'0 0.0
2018-Jul-14 17:30N 33°44' W 118°16'0 0.0
2018-Jul-14 17:00N 33°44' W 118°16'0 0.0
2018-Jul-14 16:30N 33°44' W 118°16'0 0.0
2018-Jul-14 16:00N 33°44' W 118°16'0 0.7
2018-Jul-14 15:30N 33°44' W 118°16'0 0.8
2018-Jul-14 15:00N 33°44' W 118°16'2 4.9
2018-Jul-14 14:31N 33°43' W 118°13'10 9.6
2018-Jul-14 13:30N 33°40' W 118°03'510.8
2018-Jul-14 13:00N 33°44' W 118°06'2 4.3
2018-Jul-14 12:30N 33°42' W 118°05'3 6.6
2018-Jul-14 12:00N 33°40' W 118°03'5 9.2
2018-Jul-14 11:30N 33°40' W 118°08'713.3
2018-Jul-14 11:01N 33°43' W 118°15'2 3.1
2018-Jul-14 10:30N 33°44' W 118°16'0 0.0
2018-Jul-14 09:59N 33°44' W 118°16'0 0.0
2018-Jul-14 09:31N 33°44' W 118°16'0 0.0
2018-Jul-14 09:00N 33°44' W 118°16'0 0.0
2018-Jul-14 08:31N 33°44' W 118°16'0 0.0
2018-Jul-14 08:01N 33°44' W 118°16'0 0.0
2018-Jul-14 07:31N 33°44' W 118°16'0 0.0
2018-Jul-14 07:00N 33°44' W 118°16'4 7.9
2018-Jul-14 06:30N 33°41' W 118°13'612.0
2018-Jul-14 06:00N 33°40' W 118°06'3 5.2
2018-Jul-14 05:31N 33°40' W 118°03'0 0.1
2018-Jul-14 05:01N 33°40' W 118°03'713.4
2018-Jul-14 04:31N 33°41' W 118°11'611.2
2018-Jul-14 04:00N 33°44' W 118°16'0 0.3
2018-Jul-14 03:30N 33°44' W 118°16'0 0.1
2018-Jul-14 03:00N 33°44' W 118°16'4 7.9
2018-Jul-14 02:30N 33°44' W 118°12'4 8.8
2018-Jul-14 02:00N 33°43' W 118°06'4 9.0
2018-Jul-14 01:30N 33°40' W 118°03'5 9.1
2018-Jul-14 01:00N 33°43' W 118°06'1 1.1
2018-Jul-14 00:30N 33°43' W 118°07'0 0.7
2018-Jul-14 00:00N 33°44' W 118°07'5 9.8
2018-Jul-13 23:30N 33°40' W 118°03'510.8
2018-Jul-13 23:00N 33°44' W 118°06'510.8
2018-Jul-13 22:30N 33°40' W 118°03'0 0.1
2018-Jul-13 22:01N 33°40' W 118°03'510.1
2018-Jul-13 21:29N 33°44' W 118°06'510.1
2018-Jul-13 21:00N 33°40' W 118°03'0 0.7
2018-Jul-13 20:30N 33°40' W 118°03'0 0.0
2018-Jul-13 20:00N 33°40' W 118°03'1 2.0
2018-Jul-13 19:31N 33°40' W 118°04'714.4
2018-Jul-13 19:00N 33°43' W 118°12'4 8.0
2018-Jul-13 18:30N 33°44' W 118°16'0 0.0
2018-Jul-13 18:00N 33°44' W 118°16'0 0.8
2018-Jul-13 17:30N 33°44' W 118°16'713.1
2018-Jul-13 16:59N 33°40' W 118°09'611.7
2018-Jul-13 16:30N 33°40' W 118°03'511.0
2018-Jul-13 16:00N 33°44' W 118°06'510.9
2018-Jul-13 15:30N 33°40' W 118°03'0 0.1
2018-Jul-13 15:00N 33°40' W 118°03'1 1.6
2018-Jul-13 14:30N 33°40' W 118°03'1 0.8
2018-Jul-13 13:31N 33°40' W 118°03'510.6
2018-Jul-13 13:00N 33°44' W 118°06'2 3.8
2018-Jul-13 12:30N 33°42' W 118°05'4 7.1
2018-Jul-13 12:00N 33°40' W 118°03'0 0.0
2018-Jul-13 11:30N 33°40' W 118°03'0 0.2
2018-Jul-13 11:00N 33°40' W 118°03'612.2
2018-Jul-13 10:30N 33°40' W 118°10'611.8
2018-Jul-13 10:00N 33°43' W 118°16'1 1.3
2018-Jul-13 09:30N 33°44' W 118°16'0 0.0
2018-Jul-13 09:00N 33°44' W 118°16'0 0.0
2018-Jul-13 08:30N 33°44' W 118°16'0 0.0
2018-Jul-13 08:00N 33°44' W 118°16'0 0.0
2018-Jul-13 07:30N 33°44' W 118°16'0 0.0
2018-Jul-13 07:00N 33°44' W 118°16'0 0.0
2018-Jul-13 06:30N 33°44' W 118°16'0 0.0
2018-Jul-13 06:00N 33°44' W 118°16'0 0.0
2018-Jul-13 05:30N 33°44' W 118°16'510.2
2018-Jul-13 05:00N 33°41' W 118°12'713.2
2018-Jul-13 04:30N 33°40' W 118°04'3 5.8
2018-Jul-13 04:00N 33°40' W 118°07'612.6
2018-Jul-13 03:30N 33°42' W 118°14'3 5.2
2018-Jul-13 03:00N 33°44' W 118°16'3 5.4
2018-Jul-13 02:30N 33°43' W 118°13'611.1
2018-Jul-13 02:00N 33°44' W 118°07'510.9
2018-Jul-13 01:30N 33°40' W 118°03'5 9.1
2018-Jul-13 01:00N 33°43' W 118°06'1 1.0
2018-Jul-13 00:30N 33°43' W 118°07'0 0.0
2018-Jul-13 00:00N 33°43' W 118°07'3 5.2
2018-Jul-12 23:30N 33°42' W 118°04'2 3.1
2018-Jul-12 23:00N 33°43' W 118°06'2 4.4
2018-Jul-12 22:30N 33°41' W 118°04'2 3.2
2018-Jul-12 22:01N 33°40' W 118°03'510.9
2018-Jul-12 21:30N 33°44' W 118°06'714.6
2018-Jul-12 21:00N 33°43' W 118°15'2 3.0
2018-Jul-12 20:30N 33°44' W 118°16'0 0.2
2018-Jul-12 20:00N 33°44' W 118°16'3 6.2
2018-Jul-12 19:30N 33°44' W 118°12'714.8
2018-Jul-12 19:00N 33°41' W 118°04'2 3.1
2018-Jul-12 18:30N 33°40' W 118°03'510.9
2018-Jul-12 18:00N 33°44' W 118°06'511.0
2018-Jul-12 17:30N 33°40' W 118°03'0 0.1
2018-Jul-12 17:00N 33°40' W 118°03'0 0.0
2018-Jul-12 16:30N 33°40' W 118°03'0 0.0
2018-Jul-12 15:59N 33°40' W 118°03'0 0.0
2018-Jul-12 15:29N 33°40' W 118°03'0 0.0
2018-Jul-12 15:00N 33°40' W 118°03'5 9.6
2018-Jul-12 14:30N 33°44' W 118°06'1 1.4
2018-Jul-12 14:01N 33°43' W 118°06'4 8.1
2018-Jul-12 13:29N 33°40' W 118°03'511.0
2018-Jul-12 13:00N 33°44' W 118°06'4 8.5
2018-Jul-12 12:31N 33°41' W 118°04'1 2.4
2018-Jul-12 12:00N 33°40' W 118°03'0 0.0
2018-Jul-12 11:30N 33°40' W 118°03'0 0.0
2018-Jul-12 11:00N 33°40' W 118°03'0 0.0
2018-Jul-12 10:30N 33°40' W 118°03'0 0.0
2018-Jul-12 10:00N 33°40' W 118°03'0 0.0
2018-Jul-12 09:30N 33°40' W 118°03'0 0.0
2018-Jul-12 09:00N 33°40' W 118°03'0 0.0
2018-Jul-12 08:30N 33°40' W 118°03'0 0.1
2018-Jul-12 08:00N 33°40' W 118°03'712.6
2018-Jul-12 07:29N 33°41' W 118°11'611.9
2018-Jul-12 07:00N 33°44' W 118°16'0 0.6
2018-Jul-12 06:30N 33°44' W 118°16'5 9.1
2018-Jul-12 06:00N 33°44' W 118°11'4 8.3
2018-Jul-12 05:30N 33°43' W 118°06'4 8.3
2018-Jul-12 05:00N 33°40' W 118°03'3 5.9
2018-Jul-12 04:30N 33°39' W 118°06'612.2
2018-Jul-12 04:00N 33°41' W 118°13'4 8.0
2018-Jul-12 03:30N 33°44' W 118°16'0 0.0
2018-Jul-12 03:00N 33°44' W 118°16'4 7.3
2018-Jul-12 02:30N 33°44' W 118°12'5 9.1
2018-Jul-12 02:00N 33°44' W 118°06'510.1
2018-Jul-12 01:31N 33°40' W 118°03'510.7
2018-Jul-12 01:01N 33°44' W 118°06'1 1.6
2018-Jul-12 00:30N 33°43' W 118°07'0 0.0
2018-Jul-12 00:00N 33°43' W 118°07'0 0.0
2018-Jul-11 23:31N 33°43' W 118°07'0 0.0
2018-Jul-11 23:01N 33°43' W 118°07'2 4.9
2018-Jul-11 22:31N 33°42' W 118°04'2 4.8
2018-Jul-11 22:01N 33°40' W 118°03'0 0.1
2018-Jul-11 21:31N 33°40' W 118°03'0 0.0
2018-Jul-11 21:01N 33°40' W 118°03'0 0.0
2018-Jul-11 20:31N 33°40' W 118°03'0 0.1
2018-Jul-11 20:00N 33°40' W 118°03'0 0.1
2018-Jul-11 19:31N 33°40' W 118°03'510.1
2018-Jul-11 19:00N 33°44' W 118°06'1 1.1
2018-Jul-11 18:30N 33°44' W 118°07'611.9
2018-Jul-11 18:01N 33°43' W 118°14'2 4.3
2018-Jul-11 17:31N 33°44' W 118°16'0 0.0
2018-Jul-11 17:01N 33°44' W 118°16'3 5.2
2018-Jul-11 16:30N 33°43' W 118°13'611.4
2018-Jul-11 16:00N 33°44' W 118°06'510.8
2018-Jul-11 15:30N 33°40' W 118°03'0 0.0
2018-Jul-11 15:00N 33°40' W 118°03'3 6.6
2018-Jul-11 14:30N 33°42' W 118°05'1 3.0
2018-Jul-11 14:00N 33°41' W 118°04'2 3.7
2018-Jul-11 13:30N 33°40' W 118°03'510.3
2018-Jul-11 12:59N 33°44' W 118°06'2 3.2
2018-Jul-11 12:30N 33°43' W 118°06'4 7.8
2018-Jul-11 12:00N 33°40' W 118°03'0 0.0
2018-Jul-11 11:30N 33°40' W 118°03'0 0.0
2018-Jul-11 11:00N 33°40' W 118°03'0 0.0
2018-Jul-11 10:30N 33°40' W 118°03'0 0.0
2018-Jul-11 10:00N 33°40' W 118°03'0 0.0
2018-Jul-11 09:31N 33°40' W 118°03'0 0.0
2018-Jul-11 09:01N 33°40' W 118°03'0 0.0
2018-Jul-11 08:30N 33°40' W 118°03'0 0.0
2018-Jul-11 08:00N 33°40' W 118°03'0 0.0
2018-Jul-11 07:30N 33°40' W 118°03'0 0.0
2018-Jul-11 07:00N 33°40' W 118°03'0 0.0
2018-Jul-11 06:30N 33°40' W 118°03'0 0.0
2018-Jul-11 06:00N 33°40' W 118°03'0 0.0
2018-Jul-11 05:30N 33°40' W 118°03'0 0.0
2018-Jul-11 05:00N 33°40' W 118°03'0 0.0
2018-Jul-11 04:31N 33°40' W 118°03'0 0.0
2018-Jul-11 04:00N 33°40' W 118°03'0 0.0
2018-Jul-11 03:30N 33°40' W 118°03'0 0.0
2018-Jul-11 03:00N 33°40' W 118°03'0 0.5
2018-Jul-11 02:30N 33°40' W 118°03'5 9.6
2018-Jul-11 02:00N 33°44' W 118°06'510.1
2018-Jul-11 01:31N 33°40' W 118°03'510.7
2018-Jul-11 01:01N 33°44' W 118°06'1 1.7
2018-Jul-11 00:30N 33°43' W 118°07'0 0.0
2018-Jul-11 00:00N 33°43' W 118°07'0 0.0
2018-Jul-10 23:30N 33°43' W 118°07'0 0.0
2018-Jul-10 23:00N 33°43' W 118°07'1 1.1
2018-Jul-10 22:31N 33°43' W 118°06'5 9.2
2018-Jul-10 22:00N 33°40' W 118°03'0 0.0
2018-Jul-10 21:30N 33°40' W 118°03'0 0.0
2018-Jul-10 21:01N 33°40' W 118°03'0 0.0
2018-Jul-10 20:30N 33°40' W 118°03'0 0.0
2018-Jul-10 20:01N 33°40' W 118°03'510.7
2018-Jul-10 19:30N 33°44' W 118°06'510.8
2018-Jul-10 19:00N 33°40' W 118°03'0 0.2
2018-Jul-10 18:30N 33°40' W 118°03'0 0.2
2018-Jul-10 18:00N 33°40' W 118°03'4 8.2
2018-Jul-10 17:30N 33°42' W 118°07'714.9
2018-Jul-10 17:00N 33°43' W 118°16'1 2.2
2018-Jul-10 16:30N 33°44' W 118°16'0 0.0
2018-Jul-10 16:00N 33°44' W 118°16'0 0.0
2018-Jul-10 15:30N 33°44' W 118°16'0 0.2
2018-Jul-10 15:01N 33°44' W 118°16'2 4.3
2018-Jul-10 14:31N 33°43' W 118°14'612.4
2018-Jul-10 14:00N 33°44' W 118°06'511.0
2018-Jul-10 13:30N 33°40' W 118°03'510.8
2018-Jul-10 13:01N 33°44' W 118°07'2 3.4
2018-Jul-10 12:31N 33°43' W 118°05'4 7.0
2018-Jul-10 12:00N 33°40' W 118°03'0 0.0
2018-Jul-10 11:31N 33°40' W 118°03'0 0.0
2018-Jul-10 10:59N 33°40' W 118°03'0 0.0
2018-Jul-10 10:30N 33°40' W 118°03'0 0.0
2018-Jul-10 10:00N 33°40' W 118°03'0 0.0
2018-Jul-10 09:30N 33°40' W 118°03'0 0.2
2018-Jul-10 09:00N 33°40' W 118°03'2 4.1
2018-Jul-10 08:30N 33°39' W 118°05'612.4
2018-Jul-10 08:00N 33°41' W 118°12'5 9.4
2018-Jul-10 07:31N 33°44' W 118°16'0 0.0
2018-Jul-10 07:01N 33°44' W 118°16'0 0.0
2018-Jul-10 06:31N 33°44' W 118°16'2 4.1
2018-Jul-10 06:00N 33°42' W 118°15'612.2
2018-Jul-10 05:31N 33°40' W 118°08'5 9.0
2018-Jul-10 05:00N 33°40' W 118°03'0 0.1
2018-Jul-10 04:30N 33°40' W 118°03'0 0.1
2018-Jul-10 04:00N 33°40' W 118°03'0 0.2
2018-Jul-10 03:30N 33°40' W 118°03'0 0.0
2018-Jul-10 03:01N 33°40' W 118°03'0 0.8
2018-Jul-10 02:30N 33°40' W 118°03'4 8.4
2018-Jul-10 02:00N 33°43' W 118°06'5 9.6
2018-Jul-10 01:30N 33°40' W 118°03'510.3
2018-Jul-10 00:59N 33°44' W 118°06'1 3.1
2018-Jul-10 00:30N 33°43' W 118°06'4 7.9
2018-Jul-10 00:00N 33°40' W 118°03'0 0.0
2018-Jul-09 23:30N 33°40' W 118°03'510.4
2018-Jul-09 23:00N 33°44' W 118°06'0 0.5
2018-Jul-09 22:31N 33°44' W 118°06'5 9.9
2018-Jul-09 22:00N 33°40' W 118°03'0 0.0
2018-Jul-09 21:30N 33°40' W 118°03'510.8
2018-Jul-09 21:00N 33°41' W 118°09'713.4
2018-Jul-09 20:30N 33°44' W 118°16'0 0.8
2018-Jul-09 20:00N 33°44' W 118°16'0 0.0
2018-Jul-09 19:30N 33°44' W 118°16'0 0.0
2018-Jul-09 19:00N 33°44' W 118°16'0 0.0
2018-Jul-09 18:30N 33°44' W 118°16'0 0.0
2018-Jul-09 18:00N 33°44' W 118°16'0 0.0
2018-Jul-09 17:30N 33°44' W 118°16'0 0.0
2018-Jul-09 17:00N 33°44' W 118°16'0 0.0
2018-Jul-09 16:30N 33°44' W 118°16'0 0.0
2018-Jul-09 16:00N 33°44' W 118°16'0 0.0
2018-Jul-09 15:30N 33°44' W 118°16'0 0.3
2018-Jul-09 15:00N 33°44' W 118°16'612.2
2018-Jul-09 14:31N 33°44' W 118°09'3 6.3
2018-Jul-09 14:01N 33°42' W 118°06'4 7.4
2018-Jul-09 13:30N 33°40' W 118°03'510.6
2018-Jul-09 13:00N 33°44' W 118°06'5 9.2
2018-Jul-09 12:30N 33°40' W 118°03'1 1.7
2018-Jul-09 12:00N 33°40' W 118°03'0 0.0
2018-Jul-09 11:30N 33°40' W 118°03'0 0.0
2018-Jul-09 11:00N 33°40' W 118°03'0 0.0
2018-Jul-09 10:31N 33°40' W 118°03'0 0.0
2018-Jul-09 10:00N 33°40' W 118°03'0 0.0
2018-Jul-09 09:30N 33°40' W 118°03'0 0.0
2018-Jul-09 09:00N 33°40' W 118°03'1 2.8
2018-Jul-09 08:30N 33°41' W 118°04'3 5.8
2018-Jul-09 08:00N 33°43' W 118°06'4 8.6
2018-Jul-09 07:30N 33°40' W 118°03'612.6
2018-Jul-09 07:00N 33°41' W 118°10'611.7
2018-Jul-09 06:30N 33°44' W 118°16'0 0.6
2018-Jul-09 06:00N 33°44' W 118°16'0 0.0
2018-Jul-09 05:30N 33°44' W 118°16'2 4.1
2018-Jul-09 05:00N 33°43' W 118°15'713.1
2018-Jul-09 04:30N 33°40' W 118°08'4 7.9
2018-Jul-09 04:00N 33°40' W 118°03'0 0.7
2018-Jul-09 03:30N 33°40' W 118°03'5 9.6
2018-Jul-09 03:00N 33°44' W 118°06'4 8.1
2018-Jul-09 02:30N 33°40' W 118°04'3 6.7
2018-Jul-09 02:00N 33°43' W 118°06'4 8.7
2018-Jul-09 01:30N 33°40' W 118°03'4 8.8
2018-Jul-09 01:00N 33°43' W 118°06'1 1.1
2018-Jul-09 00:30N 33°43' W 118°07'0 0.0
2018-Jul-09 00:00N 33°43' W 118°07'0 0.0
2018-Jul-08 23:30N 33°43' W 118°07'0 0.0
2018-Jul-08 23:00N 33°43' W 118°07'2 3.6
2018-Jul-08 22:30N 33°42' W 118°05'3 5.9
2018-Jul-08 22:00N 33°40' W 118°03'0 0.0
2018-Jul-08 21:30N 33°40' W 118°03'0 0.0
2018-Jul-08 21:00N 33°40' W 118°03'0 0.1
2018-Jul-08 20:30N 33°40' W 118°03'0 0.0
2018-Jul-08 20:00N 33°40' W 118°03'4 8.5
2018-Jul-08 19:30N 33°43' W 118°06'1 3.0
2018-Jul-08 19:00N 33°44' W 118°08'611.9
2018-Jul-08 18:30N 33°43' W 118°15'2 3.7
2018-Jul-08 18:00N 33°44' W 118°16'0 0.0
2018-Jul-08 17:30N 33°44' W 118°16'0 0.0
2018-Jul-08 17:00N 33°44' W 118°16'0 0.0
2018-Jul-08 16:30N 33°44' W 118°16'0 0.0
2018-Jul-08 16:00N 33°44' W 118°16'3 5.3
2018-Jul-08 15:30N 33°43' W 118°13'611.5
2018-Jul-08 15:00N 33°42' W 118°06'2 4.7
2018-Jul-08 14:30N 33°41' W 118°04'3 5.1
2018-Jul-08 14:00N 33°43' W 118°06'4 8.4
2018-Jul-08 13:30N 33°40' W 118°03'510.0
2018-Jul-08 13:00N 33°44' W 118°06'3 5.4
2018-Jul-08 12:30N 33°44' W 118°10'610.8
2018-Jul-08 12:00N 33°44' W 118°16'1 1.1
2018-Jul-08 11:30N 33°44' W 118°16'0 0.0
2018-Jul-08 11:00N 33°44' W 118°16'0 0.0
2018-Jul-08 10:30N 33°44' W 118°16'0 0.0
2018-Jul-08 10:00N 33°44' W 118°16'3 6.4
2018-Jul-08 09:30N 33°42' W 118°14'612.2
2018-Jul-08 09:01N 33°39' W 118°07'4 7.2
2018-Jul-08 08:30N 33°40' W 118°03'0 0.1
2018-Jul-08 08:00N 33°40' W 118°03'4 7.8
2018-Jul-08 07:30N 33°40' W 118°07'612.7
2018-Jul-08 07:01N 33°42' W 118°14'3 5.4
2018-Jul-08 06:31N 33°44' W 118°16'0 0.0
2018-Jul-08 06:00N 33°44' W 118°16'0 0.0
2018-Jul-08 05:30N 33°44' W 118°16'4 8.6
2018-Jul-08 05:00N 33°44' W 118°11'5 9.2
2018-Jul-08 04:31N 33°43' W 118°06'4 7.8
2018-Jul-08 04:00N 33°40' W 118°03'0 0.1
2018-Jul-08 03:30N 33°40' W 118°03'0 0.0
2018-Jul-08 03:00N 33°40' W 118°03'3 6.2
2018-Jul-08 02:30N 33°42' W 118°05'2 3.6
2018-Jul-08 02:00N 33°44' W 118°06'510.0
2018-Jul-08 01:30N 33°40' W 118°03'5 9.4
2018-Jul-08 01:00N 33°43' W 118°06'0 0.9
2018-Jul-08 00:30N 33°43' W 118°07'0 0.0
2018-Jul-08 00:01N 33°43' W 118°07'0 0.0
2018-Jul-07 23:31N 33°43' W 118°07'0 0.0
2018-Jul-07 23:00N 33°43' W 118°07'0 0.0
2018-Jul-07 22:30N 33°43' W 118°07'3 6.8
2018-Jul-07 22:00N 33°41' W 118°04'1 2.7
2018-Jul-07 21:30N 33°40' W 118°03'0 0.0
2018-Jul-07 21:00N 33°40' W 118°03'0 0.0
2018-Jul-07 20:31N 33°40' W 118°03'0 0.0
2018-Jul-07 20:01N 33°40' W 118°03'0 0.2
2018-Jul-07 19:30N 33°40' W 118°03'1 1.1
2018-Jul-07 19:01N 33°40' W 118°03'612.8
2018-Jul-07 18:30N 33°40' W 118°11'611.6
2018-Jul-07 18:00N 33°44' W 118°16'0 1.0
2018-Jul-07 17:30N 33°44' W 118°16'0 0.0
2018-Jul-07 17:00N 33°44' W 118°16'0 0.2
2018-Jul-07 16:30N 33°44' W 118°16'2 3.5
2018-Jul-07 16:00N 33°43' W 118°15'713.3
2018-Jul-07 15:30N 33°44' W 118°07'510.5
2018-Jul-07 15:01N 33°40' W 118°03'2 3.4
2018-Jul-07 14:30N 33°41' W 118°04'2 3.0
2018-Jul-07 14:00N 33°42' W 118°05'3 6.9
2018-Jul-07 13:30N 33°40' W 118°03'510.9
2018-Jul-07 13:00N 33°44' W 118°06'4 7.9
2018-Jul-07 12:30N 33°41' W 118°04'1 2.8
2018-Jul-07 12:00N 33°40' W 118°03'0 0.0
2018-Jul-07 11:30N 33°40' W 118°03'0 0.0
2018-Jul-07 11:00N 33°40' W 118°03'1 2.3
2018-Jul-07 10:30N 33°41' W 118°04'3 5.6
2018-Jul-07 10:00N 33°43' W 118°06'4 7.9
2018-Jul-07 09:30N 33°40' W 118°03'0 0.0
2018-Jul-07 09:00N 33°40' W 118°03'0 0.0
2018-Jul-07 08:30N 33°40' W 118°03'0 0.0
2018-Jul-07 08:00N 33°40' W 118°03'0 0.0
2018-Jul-07 07:30N 33°40' W 118°03'0 0.0
2018-Jul-07 07:00N 33°40' W 118°03'0 0.0
2018-Jul-07 06:30N 33°40' W 118°03'0 0.0
2018-Jul-07 06:00N 33°40' W 118°03'0 0.0
2018-Jul-07 05:30N 33°40' W 118°03'0 0.0
2018-Jul-07 05:00N 33°40' W 118°03'0 0.0
2018-Jul-07 04:30N 33°40' W 118°03'510.7
2018-Jul-07 04:00N 33°44' W 118°07'4 7.2
2018-Jul-07 03:30N 33°41' W 118°04'3 6.6
2018-Jul-07 03:00N 33°44' W 118°06'1 1.1
2018-Jul-07 02:30N 33°43' W 118°07'0 0.1
2018-Jul-07 02:00N 33°43' W 118°07'4 7.7
2018-Jul-07 01:30N 33°40' W 118°03'3 5.3
2018-Jul-07 01:00N 33°43' W 118°05'1 2.2
2018-Jul-07 00:30N 33°43' W 118°06'4 8.3
2018-Jul-07 00:00N 33°40' W 118°03'0 0.3
2018-Jul-06 23:31N 33°40' W 118°03'4 8.1
2018-Jul-06 22:59N 33°43' W 118°07'0 0.7
2018-Jul-06 22:31N 33°43' W 118°06'5 9.4
2018-Jul-06 22:00N 33°40' W 118°03'0 0.1
2018-Jul-06 21:30N 33°40' W 118°03'0 0.0
2018-Jul-06 21:00N 33°40' W 118°03'0 0.0
2018-Jul-06 20:30N 33°40' W 118°03'0 0.0
2018-Jul-06 20:00N 33°40' W 118°03'0 0.1
2018-Jul-06 19:30N 33°40' W 118°03'511.0
2018-Jul-06 19:00N 33°44' W 118°06'510.9
2018-Jul-06 18:30N 33°40' W 118°03'0 0.1
2018-Jul-06 18:00N 33°40' W 118°03'0 0.0
2018-Jul-06 17:30N 33°40' W 118°03'0 0.0
2018-Jul-06 17:00N 33°40' W 118°03'0 0.0
2018-Jul-06 16:30N 33°40' W 118°03'0 0.0
2018-Jul-06 15:59N 33°40' W 118°03'0 0.0
2018-Jul-06 15:30N 33°40' W 118°03'0 0.0
2018-Jul-06 15:00N 33°40' W 118°03'1 2.7
2018-Jul-06 14:30N 33°41' W 118°04'3 6.2
2018-Jul-06 14:00N 33°43' W 118°06'4 8.9
2018-Jul-06 13:30N 33°40' W 118°03'510.3
2018-Jul-06 13:00N 33°44' W 118°06'4 8.3
2018-Jul-06 12:30N 33°44' W 118°11'4 8.2
2018-Jul-06 12:00N 33°44' W 118°16'0 0.0
2018-Jul-06 11:30N 33°44' W 118°16'0 0.0
2018-Jul-06 11:00N 33°44' W 118°16'0 0.0
2018-Jul-06 10:30N 33°44' W 118°16'0 0.0
2018-Jul-06 10:00N 33°44' W 118°16'0 0.0
2018-Jul-06 09:30N 33°44' W 118°16'3 5.3
2018-Jul-06 09:00N 33°43' W 118°13'817.1
2018-Jul-06 08:30N 33°40' W 118°04'1 2.0
2018-Jul-06 08:00N 33°40' W 118°03'1 1.6
2018-Jul-06 07:30N 33°40' W 118°03'816.6
2018-Jul-06 07:00N 33°43' W 118°12'3 6.4
2018-Jul-06 06:30N 33°44' W 118°16'0 0.0
2018-Jul-06 06:00N 33°44' W 118°16'0 0.0
2018-Jul-06 05:30N 33°44' W 118°16'0 0.0
2018-Jul-06 05:00N 33°44' W 118°16'  
Track history (hours):
 
Tides and Currents Weather Stations Pressure Air Temp Water Temp Dewpoint Dewpoint Depression Visibility Wind Speed Wind Dir Waves Ship Positions

Peter Mac

Owner: So Cal Ship Services inc., TERMINAL ISLAND, CA. More information available from US FCC via Universal Licensing System and Coast Guard Vessel Documentation Center.

Last reported at 2018-Jul-16 04:31 UTC. Time now 2018-Jul-16 04:30 UTC.
Position N 33°44' W 118°16'.

Length 27 m; draft 2.4 m.

Type: Other ship. MMSI: 367104080.

Date/timePositionNaut miles runAvg speedWind from/ knotsBaromVisibWave heightAir tempDewpointWater temp
2018-Jul-16 04:31N 33°44' W 118°16'0 0.0
2018-Jul-16 04:00N 33°44' W 118°16'0 0.0
2018-Jul-16 03:30N 33°44' W 118°16'0 0.0
2018-Jul-16 03:01N 33°44' W 118°16'0 0.2
2018-Jul-16 02:30N 33°44' W 118°16'510.2
2018-Jul-16 02:00N 33°41' W 118°11'612.1
2018-Jul-16 01:30N 33°40' W 118°04'4 7.8
2018-Jul-16 01:00N 33°43' W 118°06'1 2.0
2018-Jul-16 00:29N 33°44' W 118°06'4 9.1
2018-Jul-16 00:00N 33°41' W 118°04'1 2.0
2018-Jul-15 23:30N 33°41' W 118°04'1 1.6
2018-Jul-15 23:00N 33°42' W 118°05'3 5.8
2018-Jul-15 22:30N 33°40' W 118°03'5 9.1
2018-Jul-15 22:01N 33°40' W 118°08'714.5
2018-Jul-15 21:31N 33°43' W 118°16'1 1.9
2018-Jul-15 21:00N 33°44' W 118°16'0 0.0
2018-Jul-15 20:30N 33°44' W 118°16'0 0.0
2018-Jul-15 20:00N 33°44' W 118°16'0 0.0
2018-Jul-15 19:30N 33°44' W 118°16'0 0.0
2018-Jul-15 19:01N 33°44' W 118°16'1 2.0
2018-Jul-15 18:30N 33°43' W 118°16'713.7
2018-Jul-15 18:00N 33°42' W 118°08'5 9.7
2018-Jul-15 17:31N 33°40' W 118°03'2 4.2
2018-Jul-15 17:00N 33°40' W 118°05'714.2
2018-Jul-15 16:30N 33°41' W 118°14'4 7.1
2018-Jul-15 16:01N 33°44' W 118°16'0 0.0
2018-Jul-15 15:31N 33°44' W 118°16'0 0.0
2018-Jul-15 15:00N 33°44' W 118°16'2 3.4
2018-Jul-15 14:30N 33°43' W 118°15'714.1
2018-Jul-15 14:00N 33°44' W 118°07'510.9
2018-Jul-15 13:30N 33°40' W 118°03'510.9
2018-Jul-15 13:00N 33°44' W 118°06'4 7.2
2018-Jul-15 12:30N 33°41' W 118°04'2 3.6
2018-Jul-15 12:00N 33°40' W 118°03'0 0.0
2018-Jul-15 11:30N 33°40' W 118°03'1 1.3
2018-Jul-15 11:00N 33°40' W 118°03'712.9
2018-Jul-15 10:30N 33°41' W 118°11'510.9
2018-Jul-15 10:00N 33°44' W 118°16'1 1.4
2018-Jul-15 09:30N 33°43' W 118°16'611.2
2018-Jul-15 09:00N 33°40' W 118°10'611.9
2018-Jul-15 08:30N 33°40' W 118°03'1 1.0
2018-Jul-15 08:00N 33°40' W 118°03'0 0.0
2018-Jul-15 07:30N 33°40' W 118°03'0 0.0
2018-Jul-15 07:01N 33°40' W 118°03'0 0.0
2018-Jul-15 06:30N 33°40' W 118°03'0 0.0
2018-Jul-15 06:00N 33°40' W 118°03'0 0.0
2018-Jul-15 05:31N 33°40' W 118°03'0 0.0
2018-Jul-15 05:01N 33°40' W 118°03'0 0.2
2018-Jul-15 04:30N 33°40' W 118°03'510.9
2018-Jul-15 04:00N 33°44' W 118°06'612.0
2018-Jul-15 03:30N 33°43' W 118°14'2 4.8
2018-Jul-15 03:00N 33°44' W 118°16'2 4.1
2018-Jul-15 02:30N 33°43' W 118°14'612.9
2018-Jul-15 02:00N 33°44' W 118°06'510.3
2018-Jul-15 01:30N 33°40' W 118°03'4 7.7
2018-Jul-15 01:00N 33°43' W 118°06'1 1.4
2018-Jul-15 00:31N 33°44' W 118°06'5 9.5
2018-Jul-15 00:00N 33°40' W 118°03'0 0.0
2018-Jul-14 23:30N 33°40' W 118°03'0 0.0
2018-Jul-14 23:00N 33°40' W 118°03'0 0.0
2018-Jul-14 22:30N 33°40' W 118°03'0 0.0
2018-Jul-14 22:00N 33°40' W 118°03'0 0.0
2018-Jul-14 21:30N 33°40' W 118°03'0 0.0
2018-Jul-14 21:00N 33°40' W 118°03'0 0.0
2018-Jul-14 20:30N 33°40' W 118°03'1 1.3
2018-Jul-14 20:00N 33°40' W 118°04'814.8
2018-Jul-14 19:30N 33°41' W 118°13'5 9.5
2018-Jul-14 19:00N 33°44' W 118°16'0 0.0
2018-Jul-14 18:30N 33°44' W 118°16'0 0.0
2018-Jul-14 18:00N 33°44' W 118°16'0 0.0
2018-Jul-14 17:30N 33°44' W 118°16'0 0.0
2018-Jul-14 17:00N 33°44' W 118°16'0 0.0
2018-Jul-14 16:30N 33°44' W 118°16'0 0.0
2018-Jul-14 16:00N 33°44' W 118°16'0 0.7
2018-Jul-14 15:30N 33°44' W 118°16'0 0.8
2018-Jul-14 15:00N 33°44' W 118°16'2 4.9
2018-Jul-14 14:31N 33°43' W 118°13'10 9.6
2018-Jul-14 13:30N 33°40' W 118°03'510.8
2018-Jul-14 13:00N 33°44' W 118°06'2 4.3
2018-Jul-14 12:30N 33°42' W 118°05'3 6.6
2018-Jul-14 12:00N 33°40' W 118°03'5 9.2
2018-Jul-14 11:30N 33°40' W 118°08'713.3
2018-Jul-14 11:01N 33°43' W 118°15'2 3.1
2018-Jul-14 10:30N 33°44' W 118°16'0 0.0
2018-Jul-14 09:59N 33°44' W 118°16'0 0.0
2018-Jul-14 09:31N 33°44' W 118°16'0 0.0
2018-Jul-14 09:00N 33°44' W 118°16'0 0.0
2018-Jul-14 08:31N 33°44' W 118°16'0 0.0
2018-Jul-14 08:01N 33°44' W 118°16'0 0.0
2018-Jul-14 07:31N 33°44' W 118°16'0 0.0
2018-Jul-14 07:00N 33°44' W 118°16'4 7.9
2018-Jul-14 06:30N 33°41' W 118°13'612.0
2018-Jul-14 06:00N 33°40' W 118°06'3 5.2
2018-Jul-14 05:31N 33°40' W 118°03'0 0.1
2018-Jul-14 05:01N 33°40' W 118°03'713.4
2018-Jul-14 04:31N 33°41' W 118°11'611.2
2018-Jul-14 04:00N 33°44' W 118°16'0 0.3
2018-Jul-14 03:30N 33°44' W 118°16'0 0.1
2018-Jul-14 03:00N 33°44' W 118°16'4 7.9
2018-Jul-14 02:30N 33°44' W 118°12'4 8.8
2018-Jul-14 02:00N 33°43' W 118°06'4 9.0
2018-Jul-14 01:30N 33°40' W 118°03'5 9.1
2018-Jul-14 01:00N 33°43' W 118°06'1 1.1
2018-Jul-14 00:30N 33°43' W 118°07'0 0.7
2018-Jul-14 00:00N 33°44' W 118°07'5 9.8
2018-Jul-13 23:30N 33°40' W 118°03'510.8
2018-Jul-13 23:00N 33°44' W 118°06'510.8
2018-Jul-13 22:30N 33°40' W 118°03'0 0.1
2018-Jul-13 22:01N 33°40' W 118°03'510.1
2018-Jul-13 21:29N 33°44' W 118°06'510.1
2018-Jul-13 21:00N 33°40' W 118°03'0 0.7
2018-Jul-13 20:30N 33°40' W 118°03'0 0.0
2018-Jul-13 20:00N 33°40' W 118°03'1 2.0
2018-Jul-13 19:31N 33°40' W 118°04'714.4
2018-Jul-13 19:00N 33°43' W 118°12'4 8.0
2018-Jul-13 18:30N 33°44' W 118°16'0 0.0
2018-Jul-13 18:00N 33°44' W 118°16'0 0.8
2018-Jul-13 17:30N 33°44' W 118°16'713.1
2018-Jul-13 16:59N 33°40' W 118°09'611.7
2018-Jul-13 16:30N 33°40' W 118°03'511.0
2018-Jul-13 16:00N 33°44' W 118°06'510.9
2018-Jul-13 15:30N 33°40' W 118°03'0 0.1
2018-Jul-13 15:00N 33°40' W 118°03'1 1.6
2018-Jul-13 14:30N 33°40' W 118°03'1 0.8
2018-Jul-13 13:31N 33°40' W 118°03'510.6
2018-Jul-13 13:00N 33°44' W 118°06'2 3.8
2018-Jul-13 12:30N 33°42' W 118°05'4 7.1
2018-Jul-13 12:00N 33°40' W 118°03'0 0.0
2018-Jul-13 11:30N 33°40' W 118°03'0 0.2
2018-Jul-13 11:00N 33°40' W 118°03'612.2
2018-Jul-13 10:30N 33°40' W 118°10'611.8
2018-Jul-13 10:00N 33°43' W 118°16'1 1.3
2018-Jul-13 09:30N 33°44' W 118°16'0 0.0
2018-Jul-13 09:00N 33°44' W 118°16'0 0.0
2018-Jul-13 08:30N 33°44' W 118°16'0 0.0
2018-Jul-13 08:00N 33°44' W 118°16'0 0.0
2018-Jul-13 07:30N 33°44' W 118°16'0 0.0
2018-Jul-13 07:00N 33°44' W 118°16'0 0.0
2018-Jul-13 06:30N 33°44' W 118°16'0 0.0
2018-Jul-13 06:00N 33°44' W 118°16'0 0.0
2018-Jul-13 05:30N 33°44' W 118°16'510.2
2018-Jul-13 05:00N 33°41' W 118°12'713.2
2018-Jul-13 04:30N 33°40' W 118°04'3 5.8
2018-Jul-13 04:00N 33°40' W 118°07'612.6
2018-Jul-13 03:30N 33°42' W 118°14'3 5.2
2018-Jul-13 03:00N 33°44' W 118°16'3 5.4
2018-Jul-13 02:30N 33°43' W 118°13'611.1
2018-Jul-13 02:00N 33°44' W 118°07'510.9
2018-Jul-13 01:30N 33°40' W 118°03'5 9.1
2018-Jul-13 01:00N 33°43' W 118°06'1 1.0
2018-Jul-13 00:30N 33°43' W 118°07'0 0.0
2018-Jul-13 00:00N 33°43' W 118°07'3 5.2
2018-Jul-12 23:30N 33°42' W 118°04'2 3.1
2018-Jul-12 23:00N 33°43' W 118°06'2 4.4
2018-Jul-12 22:30N 33°41' W 118°04'2 3.2
2018-Jul-12 22:01N 33°40' W 118°03'510.9
2018-Jul-12 21:30N 33°44' W 118°06'714.6
2018-Jul-12 21:00N 33°43' W 118°15'2 3.0
2018-Jul-12 20:30N 33°44' W 118°16'0 0.2
2018-Jul-12 20:00N 33°44' W 118°16'3 6.2
2018-Jul-12 19:30N 33°44' W 118°12'714.8
2018-Jul-12 19:00N 33°41' W 118°04'2 3.1
2018-Jul-12 18:30N 33°40' W 118°03'510.9
2018-Jul-12 18:00N 33°44' W 118°06'511.0
2018-Jul-12 17:30N 33°40' W 118°03'0 0.1
2018-Jul-12 17:00N 33°40' W 118°03'0 0.0
2018-Jul-12 16:30N 33°40' W 118°03'0 0.0
2018-Jul-12 15:59N 33°40' W 118°03'0 0.0
2018-Jul-12 15:29N 33°40' W 118°03'0 0.0
2018-Jul-12 15:00N 33°40' W 118°03'5 9.6
2018-Jul-12 14:30N 33°44' W 118°06'1 1.4
2018-Jul-12 14:01N 33°43' W 118°06'4 8.1
2018-Jul-12 13:29N 33°40' W 118°03'511.0
2018-Jul-12 13:00N 33°44' W 118°06'4 8.5
2018-Jul-12 12:31N 33°41' W 118°04'1 2.4
2018-Jul-12 12:00N 33°40' W 118°03'0 0.0
2018-Jul-12 11:30N 33°40' W 118°03'0 0.0
2018-Jul-12 11:00N 33°40' W 118°03'0 0.0
2018-Jul-12 10:30N 33°40' W 118°03'0 0.0
2018-Jul-12 10:00N 33°40' W 118°03'0 0.0
2018-Jul-12 09:30N 33°40' W 118°03'0 0.0
2018-Jul-12 09:00N 33°40' W 118°03'0 0.0
2018-Jul-12 08:30N 33°40' W 118°03'0 0.1
2018-Jul-12 08:00N 33°40' W 118°03'712.6
2018-Jul-12 07:29N 33°41' W 118°11'611.9
2018-Jul-12 07:00N 33°44' W 118°16'0 0.6
2018-Jul-12 06:30N 33°44' W 118°16'5 9.1
2018-Jul-12 06:00N 33°44' W 118°11'4 8.3
2018-Jul-12 05:30N 33°43' W 118°06'4 8.3
2018-Jul-12 05:00N 33°40' W 118°03'3 5.9
2018-Jul-12 04:30N 33°39' W 118°06'612.2
2018-Jul-12 04:00N 33°41' W 118°13'4 8.0
2018-Jul-12 03:30N 33°44' W 118°16'0 0.0
2018-Jul-12 03:00N 33°44' W 118°16'4 7.3
2018-Jul-12 02:30N 33°44' W 118°12'5 9.1
2018-Jul-12 02:00N 33°44' W 118°06'510.1
2018-Jul-12 01:31N 33°40' W 118°03'510.7
2018-Jul-12 01:01N 33°44' W 118°06'1 1.6
2018-Jul-12 00:30N 33°43' W 118°07'0 0.0
2018-Jul-12 00:00N 33°43' W 118°07'0 0.0
2018-Jul-11 23:31N 33°43' W 118°07'0 0.0
2018-Jul-11 23:01N 33°43' W 118°07'2 4.9
2018-Jul-11 22:31N 33°42' W 118°04'2 4.8
2018-Jul-11 22:01N 33°40' W 118°03'0 0.1
2018-Jul-11 21:31N 33°40' W 118°03'0 0.0
2018-Jul-11 21:01N 33°40' W 118°03'0 0.0
2018-Jul-11 20:31N 33°40' W 118°03'0 0.1
2018-Jul-11 20:00N 33°40' W 118°03'0 0.1
2018-Jul-11 19:31N 33°40' W 118°03'510.1
2018-Jul-11 19:00N 33°44' W 118°06'1 1.1
2018-Jul-11 18:30N 33°44' W 118°07'611.9
2018-Jul-11 18:01N 33°43' W 118°14'2 4.3
2018-Jul-11 17:31N 33°44' W 118°16'0 0.0
2018-Jul-11 17:01N 33°44' W 118°16'3 5.2
2018-Jul-11 16:30N 33°43' W 118°13'611.4
2018-Jul-11 16:00N 33°44' W 118°06'510.8
2018-Jul-11 15:30N 33°40' W 118°03'0 0.0
2018-Jul-11 15:00N 33°40' W 118°03'3 6.6
2018-Jul-11 14:30N 33°42' W 118°05'1 3.0
2018-Jul-11 14:00N 33°41' W 118°04'2 3.7
2018-Jul-11 13:30N 33°40' W 118°03'510.3
2018-Jul-11 12:59N 33°44' W 118°06'2 3.2
2018-Jul-11 12:30N 33°43' W 118°06'4 7.8
2018-Jul-11 12:00N 33°40' W 118°03'0 0.0
2018-Jul-11 11:30N 33°40' W 118°03'0 0.0
2018-Jul-11 11:00N 33°40' W 118°03'0 0.0
2018-Jul-11 10:30N 33°40' W 118°03'0 0.0
2018-Jul-11 10:00N 33°40' W 118°03'0 0.0
2018-Jul-11 09:31N 33°40' W 118°03'0 0.0
2018-Jul-11 09:01N 33°40' W 118°03'0 0.0
2018-Jul-11 08:30N 33°40' W 118°03'0 0.0
2018-Jul-11 08:00N 33°40' W 118°03'0 0.0
2018-Jul-11 07:30N 33°40' W 118°03'0 0.0
2018-Jul-11 07:00N 33°40' W 118°03'0 0.0
2018-Jul-11 06:30N 33°40' W 118°03'0 0.0
2018-Jul-11 06:00N 33°40' W 118°03'0 0.0
2018-Jul-11 05:30N 33°40' W 118°03'0 0.0
2018-Jul-11 05:00N 33°40' W 118°03'0 0.0
2018-Jul-11 04:31N 33°40' W 118°03'0 0.0
2018-Jul-11 04:00N 33°40' W 118°03'0 0.0
2018-Jul-11 03:30N 33°40' W 118°03'0 0.0
2018-Jul-11 03:00N 33°40' W 118°03'0 0.5
2018-Jul-11 02:30N 33°40' W 118°03'5 9.6
2018-Jul-11 02:00N 33°44' W 118°06'510.1
2018-Jul-11 01:31N 33°40' W 118°03'510.7
2018-Jul-11 01:01N 33°44' W 118°06'1 1.7
2018-Jul-11 00:30N 33°43' W 118°07'0 0.0
2018-Jul-11 00:00N 33°43' W 118°07'0 0.0
2018-Jul-10 23:30N 33°43' W 118°07'0 0.0
2018-Jul-10 23:00N 33°43' W 118°07'1 1.1
2018-Jul-10 22:31N 33°43' W 118°06'5 9.2
2018-Jul-10 22:00N 33°40' W 118°03'0 0.0
2018-Jul-10 21:30N 33°40' W 118°03'0 0.0
2018-Jul-10 21:01N 33°40' W 118°03'0 0.0
2018-Jul-10 20:30N 33°40' W 118°03'0 0.0
2018-Jul-10 20:01N 33°40' W 118°03'510.7
2018-Jul-10 19:30N 33°44' W 118°06'510.8
2018-Jul-10 19:00N 33°40' W 118°03'0 0.2
2018-Jul-10 18:30N 33°40' W 118°03'0 0.2
2018-Jul-10 18:00N 33°40' W 118°03'4 8.2
2018-Jul-10 17:30N 33°42' W 118°07'714.9
2018-Jul-10 17:00N 33°43' W 118°16'1 2.2
2018-Jul-10 16:30N 33°44' W 118°16'0 0.0
2018-Jul-10 16:00N 33°44' W 118°16'0 0.0
2018-Jul-10 15:30N 33°44' W 118°16'0 0.2
2018-Jul-10 15:01N 33°44' W 118°16'2 4.3
2018-Jul-10 14:31N 33°43' W 118°14'612.4
2018-Jul-10 14:00N 33°44' W 118°06'511.0
2018-Jul-10 13:30N 33°40' W 118°03'510.8
2018-Jul-10 13:01N 33°44' W 118°07'2 3.4
2018-Jul-10 12:31N 33°43' W 118°05'4 7.0
2018-Jul-10 12:00N 33°40' W 118°03'0 0.0
2018-Jul-10 11:31N 33°40' W 118°03'0 0.0
2018-Jul-10 10:59N 33°40' W 118°03'0 0.0
2018-Jul-10 10:30N 33°40' W 118°03'0 0.0
2018-Jul-10 10:00N 33°40' W 118°03'0 0.0
2018-Jul-10 09:30N 33°40' W 118°03'0 0.2
2018-Jul-10 09:00N 33°40' W 118°03'2 4.1
2018-Jul-10 08:30N 33°39' W 118°05'612.4
2018-Jul-10 08:00N 33°41' W 118°12'5 9.4
2018-Jul-10 07:31N 33°44' W 118°16'0 0.0
2018-Jul-10 07:01N 33°44' W 118°16'0 0.0
2018-Jul-10 06:31N 33°44' W 118°16'2 4.1
2018-Jul-10 06:00N 33°42' W 118°15'612.2
2018-Jul-10 05:31N 33°40' W 118°08'5 9.0
2018-Jul-10 05:00N 33°40' W 118°03'0 0.1
2018-Jul-10 04:30N 33°40' W 118°03'0 0.1
2018-Jul-10 04:00N 33°40' W 118°03'0 0.2
2018-Jul-10 03:30N 33°40' W 118°03'0 0.0
2018-Jul-10 03:01N 33°40' W 118°03'0 0.8
2018-Jul-10 02:30N 33°40' W 118°03'4 8.4
2018-Jul-10 02:00N 33°43' W 118°06'5 9.6
2018-Jul-10 01:30N 33°40' W 118°03'510.3
2018-Jul-10 00:59N 33°44' W 118°06'1 3.1
2018-Jul-10 00:30N 33°43' W 118°06'4 7.9
2018-Jul-10 00:00N 33°40' W 118°03'0 0.0
2018-Jul-09 23:30N 33°40' W 118°03'510.4
2018-Jul-09 23:00N 33°44' W 118°06'0 0.5
2018-Jul-09 22:31N 33°44' W 118°06'5 9.9
2018-Jul-09 22:00N 33°40' W 118°03'0 0.0
2018-Jul-09 21:30N 33°40' W 118°03'510.8
2018-Jul-09 21:00N 33°41' W 118°09'713.4
2018-Jul-09 20:30N 33°44' W 118°16'0 0.8
2018-Jul-09 20:00N 33°44' W 118°16'0 0.0
2018-Jul-09 19:30N 33°44' W 118°16'0 0.0
2018-Jul-09 19:00N 33°44' W 118°16'0 0.0
2018-Jul-09 18:30N 33°44' W 118°16'0 0.0
2018-Jul-09 18:00N 33°44' W 118°16'0 0.0
2018-Jul-09 17:30N 33°44' W 118°16'0 0.0
2018-Jul-09 17:00N 33°44' W 118°16'0 0.0
2018-Jul-09 16:30N 33°44' W 118°16'0 0.0
2018-Jul-09 16:00N 33°44' W 118°16'0 0.0
2018-Jul-09 15:30N 33°44' W 118°16'0 0.3
2018-Jul-09 15:00N 33°44' W 118°16'612.2
2018-Jul-09 14:31N 33°44' W 118°09'3 6.3
2018-Jul-09 14:01N 33°42' W 118°06'4 7.4
2018-Jul-09 13:30N 33°40' W 118°03'510.6
2018-Jul-09 13:00N 33°44' W 118°06'5 9.2
2018-Jul-09 12:30N 33°40' W 118°03'1 1.7
2018-Jul-09 12:00N 33°40' W 118°03'0 0.0
2018-Jul-09 11:30N 33°40' W 118°03'0 0.0
2018-Jul-09 11:00N 33°40' W 118°03'0 0.0
2018-Jul-09 10:31N 33°40' W 118°03'0 0.0
2018-Jul-09 10:00N 33°40' W 118°03'0 0.0
2018-Jul-09 09:30N 33°40' W 118°03'0 0.0
2018-Jul-09 09:00N 33°40' W 118°03'1 2.8
2018-Jul-09 08:30N 33°41' W 118°04'3 5.8
2018-Jul-09 08:00N 33°43' W 118°06'4 8.6
2018-Jul-09 07:30N 33°40' W 118°03'612.6
2018-Jul-09 07:00N 33°41' W 118°10'611.7
2018-Jul-09 06:30N 33°44' W 118°16'0 0.6
2018-Jul-09 06:00N 33°44' W 118°16'0 0.0
2018-Jul-09 05:30N 33°44' W 118°16'2 4.1
2018-Jul-09 05:00N 33°43' W 118°15'713.1
2018-Jul-09 04:30N 33°40' W 118°08'4 7.9
2018-Jul-09 04:00N 33°40' W 118°03'0 0.7
2018-Jul-09 03:30N 33°40' W 118°03'5 9.6
2018-Jul-09 03:00N 33°44' W 118°06'4 8.1
2018-Jul-09 02:30N 33°40' W 118°04'3 6.7
2018-Jul-09 02:00N 33°43' W 118°06'4 8.7
2018-Jul-09 01:30N 33°40' W 118°03'4 8.8
2018-Jul-09 01:00N 33°43' W 118°06'1 1.1
2018-Jul-09 00:30N 33°43' W 118°07'0 0.0
2018-Jul-09 00:00N 33°43' W 118°07'0 0.0
2018-Jul-08 23:30N 33°43' W 118°07'0 0.0
2018-Jul-08 23:00N 33°43' W 118°07'2 3.6
2018-Jul-08 22:30N 33°42' W 118°05'3 5.9
2018-Jul-08 22:00N 33°40' W 118°03'0 0.0
2018-Jul-08 21:30N 33°40' W 118°03'0 0.0
2018-Jul-08 21:00N 33°40' W 118°03'0 0.1
2018-Jul-08 20:30N 33°40' W 118°03'0 0.0
2018-Jul-08 20:00N 33°40' W 118°03'4 8.5
2018-Jul-08 19:30N 33°43' W 118°06'1 3.0
2018-Jul-08 19:00N 33°44' W 118°08'611.9
2018-Jul-08 18:30N 33°43' W 118°15'2 3.7
2018-Jul-08 18:00N 33°44' W 118°16'0 0.0
2018-Jul-08 17:30N 33°44' W 118°16'0 0.0
2018-Jul-08 17:00N 33°44' W 118°16'0 0.0
2018-Jul-08 16:30N 33°44' W 118°16'0 0.0
2018-Jul-08 16:00N 33°44' W 118°16'3 5.3
2018-Jul-08 15:30N 33°43' W 118°13'611.5
2018-Jul-08 15:00N 33°42' W 118°06'2 4.7
2018-Jul-08 14:30N 33°41' W 118°04'3 5.1
2018-Jul-08 14:00N 33°43' W 118°06'4 8.4
2018-Jul-08 13:30N 33°40' W 118°03'510.0
2018-Jul-08 13:00N 33°44' W 118°06'3 5.4
2018-Jul-08 12:30N 33°44' W 118°10'610.8
2018-Jul-08 12:00N 33°44' W 118°16'1 1.1
2018-Jul-08 11:30N 33°44' W 118°16'0 0.0
2018-Jul-08 11:00N 33°44' W 118°16'0 0.0
2018-Jul-08 10:30N 33°44' W 118°16'0 0.0
2018-Jul-08 10:00N 33°44' W 118°16'3 6.4
2018-Jul-08 09:30N 33°42' W 118°14'612.2
2018-Jul-08 09:01N 33°39' W 118°07'4 7.2
2018-Jul-08 08:30N 33°40' W 118°03'0 0.1
2018-Jul-08 08:00N 33°40' W 118°03'4 7.8
2018-Jul-08 07:30N 33°40' W 118°07'612.7
2018-Jul-08 07:01N 33°42' W 118°14'3 5.4
2018-Jul-08 06:31N 33°44' W 118°16'0 0.0
2018-Jul-08 06:00N 33°44' W 118°16'0 0.0
2018-Jul-08 05:30N 33°44' W 118°16'4 8.6
2018-Jul-08 05:00N 33°44' W 118°11'5 9.2
2018-Jul-08 04:31N 33°43' W 118°06'4 7.8
2018-Jul-08 04:00N 33°40' W 118°03'0 0.1
2018-Jul-08 03:30N 33°40' W 118°03'0 0.0
2018-Jul-08 03:00N 33°40' W 118°03'3 6.2
2018-Jul-08 02:30N 33°42' W 118°05'2 3.6
2018-Jul-08 02:00N 33°44' W 118°06'510.0
2018-Jul-08 01:30N 33°40' W 118°03'5 9.4
2018-Jul-08 01:00N 33°43' W 118°06'0 0.9
2018-Jul-08 00:30N 33°43' W 118°07'0 0.0
2018-Jul-08 00:01N 33°43' W 118°07'0 0.0
2018-Jul-07 23:31N 33°43' W 118°07'0 0.0
2018-Jul-07 23:00N 33°43' W 118°07'0 0.0
2018-Jul-07 22:30N 33°43' W 118°07'3 6.8
2018-Jul-07 22:00N 33°41' W 118°04'1 2.7
2018-Jul-07 21:30N 33°40' W 118°03'0 0.0
2018-Jul-07 21:00N 33°40' W 118°03'0 0.0
2018-Jul-07 20:31N 33°40' W 118°03'0 0.0
2018-Jul-07 20:01N 33°40' W 118°03'0 0.2
2018-Jul-07 19:30N 33°40' W 118°03'1 1.1
2018-Jul-07 19:01N 33°40' W 118°03'612.8
2018-Jul-07 18:30N 33°40' W 118°11'611.6
2018-Jul-07 18:00N 33°44' W 118°16'0 1.0
2018-Jul-07 17:30N 33°44' W 118°16'0 0.0
2018-Jul-07 17:00N 33°44' W 118°16'0 0.2
2018-Jul-07 16:30N 33°44' W 118°16'2 3.5
2018-Jul-07 16:00N 33°43' W 118°15'713.3
2018-Jul-07 15:30N 33°44' W 118°07'510.5
2018-Jul-07 15:01N 33°40' W 118°03'2 3.4
2018-Jul-07 14:30N 33°41' W 118°04'2 3.0
2018-Jul-07 14:00N 33°42' W 118°05'3 6.9
2018-Jul-07 13:30N 33°40' W 118°03'510.9
2018-Jul-07 13:00N 33°44' W 118°06'4 7.9
2018-Jul-07 12:30N 33°41' W 118°04'1 2.8
2018-Jul-07 12:00N 33°40' W 118°03'0 0.0
2018-Jul-07 11:30N 33°40' W 118°03'0 0.0
2018-Jul-07 11:00N 33°40' W 118°03'1 2.3
2018-Jul-07 10:30N 33°41' W 118°04'3 5.6
2018-Jul-07 10:00N 33°43' W 118°06'4 7.9
2018-Jul-07 09:30N 33°40' W 118°03'0 0.0
2018-Jul-07 09:00N 33°40' W 118°03'0 0.0
2018-Jul-07 08:30N 33°40' W 118°03'0 0.0
2018-Jul-07 08:00N 33°40' W 118°03'0 0.0
2018-Jul-07 07:30N 33°40' W 118°03'0 0.0
2018-Jul-07 07:00N 33°40' W 118°03'0 0.0
2018-Jul-07 06:30N 33°40' W 118°03'0 0.0
2018-Jul-07 06:00N 33°40' W 118°03'0 0.0
2018-Jul-07 05:30N 33°40' W 118°03'0 0.0
2018-Jul-07 05:00N 33°40' W 118°03'0 0.0
2018-Jul-07 04:30N 33°40' W 118°03'510.7
2018-Jul-07 04:00N 33°44' W 118°07'4 7.2
2018-Jul-07 03:30N 33°41' W 118°04'3 6.6
2018-Jul-07 03:00N 33°44' W 118°06'1 1.1
2018-Jul-07 02:30N 33°43' W 118°07'0 0.1
2018-Jul-07 02:00N 33°43' W 118°07'4 7.7
2018-Jul-07 01:30N 33°40' W 118°03'3 5.3
2018-Jul-07 01:00N 33°43' W 118°05'1 2.2
2018-Jul-07 00:30N 33°43' W 118°06'4 8.3
2018-Jul-07 00:00N 33°40' W 118°03'0 0.3
2018-Jul-06 23:31N 33°40' W 118°03'4 8.1
2018-Jul-06 22:59N 33°43' W 118°07'0 0.7
2018-Jul-06 22:31N 33°43' W 118°06'5 9.4
2018-Jul-06 22:00N 33°40' W 118°03'0 0.1
2018-Jul-06 21:30N 33°40' W 118°03'0 0.0
2018-Jul-06 21:00N 33°40' W 118°03'0 0.0
2018-Jul-06 20:30N 33°40' W 118°03'0 0.0
2018-Jul-06 20:00N 33°40' W 118°03'0 0.1
2018-Jul-06 19:30N 33°40' W 118°03'511.0
2018-Jul-06 19:00N 33°44' W 118°06'510.9
2018-Jul-06 18:30N 33°40' W 118°03'0 0.1
2018-Jul-06 18:00N 33°40' W 118°03'0 0.0
2018-Jul-06 17:30N 33°40' W 118°03'0 0.0
2018-Jul-06 17:00N 33°40' W 118°03'0 0.0
2018-Jul-06 16:30N 33°40' W 118°03'0 0.0
2018-Jul-06 15:59N 33°40' W 118°03'0 0.0
2018-Jul-06 15:30N 33°40' W 118°03'0 0.0
2018-Jul-06 15:00N 33°40' W 118°03'1 2.7
2018-Jul-06 14:30N 33°41' W 118°04'3 6.2
2018-Jul-06 14:00N 33°43' W 118°06'4 8.9
2018-Jul-06 13:30N 33°40' W 118°03'510.3
2018-Jul-06 13:00N 33°44' W 118°06'4 8.3
2018-Jul-06 12:30N 33°44' W 118°11'4 8.2
2018-Jul-06 12:00N 33°44' W 118°16'0 0.0
2018-Jul-06 11:30N 33°44' W 118°16'0 0.0
2018-Jul-06 11:00N 33°44' W 118°16'0 0.0
2018-Jul-06 10:30N 33°44' W 118°16'0 0.0
2018-Jul-06 10:00N 33°44' W 118°16'0 0.0
2018-Jul-06 09:30N 33°44' W 118°16'3 5.3
2018-Jul-06 09:00N 33°43' W 118°13'817.1
2018-Jul-06 08:30N 33°40' W 118°04'1 2.0
2018-Jul-06 08:00N 33°40' W 118°03'1 1.6
2018-Jul-06 07:30N 33°40' W 118°03'816.6
2018-Jul-06 07:00N 33°43' W 118°12'3 6.4
2018-Jul-06 06:30N 33°44' W 118°16'0 0.0
2018-Jul-06 06:00N 33°44' W 118°16'0 0.0
2018-Jul-06 05:30N 33°44' W 118°16'0 0.0
2018-Jul-06 05:00N 33°44' W 118°16'  

Dump ship's entire track history